Time;durP1;ratioP1;P1;durP2;ratioP2;P2;SDS_P1;SDS_P2;PMS_P1;PMS_P2;Temp;Humidity;BMP_temperature;BMP_pressure;BME280_temperature;BME280_humidity;BME280_pressure;Samples;Min_cycle;Max_cycle;Signal;HPM_P1;HPM_P2
2020/12/12 00:00:18;;;;;;;7.97;3.42;;;3.70;98.00;;;;;;5020038;28;20430;-73
2020/12/12 00:02:43;;;;;;;6.05;3.67;;;3.70;98.00;;;;;;5031235;28;20442;-72
2020/12/12 00:05:09;;;;;;;6.05;3.38;;;3.70;98.00;;;;;;5035326;28;20453;-72
2020/12/12 00:07:35;;;;;;;6.45;3.42;;;3.70;98.00;;;;;;5033162;28;20437;-71
2020/12/12 00:10:01;;;;;;;5.90;3.28;;;3.70;98.00;;;;;;5032637;28;20034;-72
2020/12/12 00:12:27;;;;;;;5.70;3.70;;;3.70;98.00;;;;;;5036327;28;20058;-71
2020/12/12 00:14:52;;;;;;;6.63;3.38;;;3.70;98.00;;;;;;5023245;28;20366;-72
2020/12/12 00:17:19;;;;;;;6.72;3.33;;;3.70;98.00;;;;;;5029239;28;20048;-72
2020/12/12 00:19:45;;;;;;;6.53;3.80;;;3.80;98.00;;;;;;5033710;28;20025;-72
2020/12/12 00:22:11;;;;;;;7.00;3.40;;;3.80;98.00;;;;;;5031574;28;20036;-71
2020/12/12 00:24:37;;;;;;;7.15;4.38;;;3.70;98.00;;;;;;5034781;28;20030;-71
2020/12/12 00:27:03;;;;;;;7.07;3.72;;;3.60;98.00;;;;;;5033990;28;20140;-71
2020/12/12 00:29:31;;;;;;;7.15;4.10;;;3.60;98.00;;;;;;5033841;28;20065;-72
2020/12/12 00:31:59;;;;;;;8.27;3.70;;;3.50;98.00;;;;;;5031586;28;20326;-72
2020/12/12 00:34:26;;;;;;;6.07;3.97;;;3.40;98.00;;;;;;5035737;28;20033;-72
2020/12/12 00:36:52;;;;;;;7.82;4.65;;;3.30;98.00;;;;;;5035950;28;20025;-72
2020/12/12 00:39:18;;;;;;;6.60;4.07;;;3.20;98.00;;;;;;5038215;28;20025;-71
2020/12/12 00:41:44;;;;;;;8.25;4.35;;;3.10;98.00;;;;;;5038051;28;20037;-71
2020/12/12 00:44:11;;;;;;;8.23;4.65;;;2.90;98.00;;;;;;5036113;28;20052;-71
2020/12/12 00:46:40;;;;;;;7.32;4.70;;;2.80;98.00;;;;;;5031339;28;20026;-71
2020/12/12 00:49:08;;;;;;;10.18;5.45;;;2.70;98.00;;;;;;5031230;28;20124;-70
2020/12/12 00:51:34;;;;;;;10.43;6.35;;;2.60;98.00;;;;;;5034895;28;20025;-72
2020/12/12 00:54:00;;;;;;;11.15;6.88;;;2.50;98.00;;;;;;5029276;28;20316;-71
2020/12/12 00:56:25;;;;;;;10.27;6.28;;;2.40;98.00;;;;;;5031585;28;20088;-71
2020/12/12 00:58:51;;;;;;;13.35;7.63;;;2.30;98.00;;;;;;5032243;28;20029;-72
2020/12/12 01:01:18;;;;;;;10.68;5.90;;;2.20;98.00;;;;;;5035271;28;20068;-71
2020/12/12 01:03:47;;;;;;;10.85;5.78;;;2.20;98.00;;;;;;5030613;28;20175;-71
2020/12/12 01:06:14;;;;;;;9.63;5.40;;;2.20;98.00;;;;;;5037337;28;20056;-71
2020/12/12 01:08:41;;;;;;;8.23;4.68;;;2.40;98.00;;;;;;5045709;28;20426;-72
2020/12/12 01:11:08;;;;;;;7.93;4.68;;;2.80;98.00;;;;;;5043023;28;20075;-70
2020/12/12 01:13:34;;;;;;;8.48;5.40;;;3.00;98.00;;;;;;5040907;28;20444;-71
2020/12/12 01:16:13;;;;;;;9.50;5.10;;;3.10;98.00;;;;;;5034958;28;20033;-71
2020/12/12 01:18:39;;;;;;;7.53;4.80;;;3.30;98.00;;;;;;5029513;28;20436;-70
2020/12/12 01:21:05;;;;;;;11.45;5.88;;;3.40;98.00;;;;;;5022887;28;20036;-70
2020/12/12 01:23:34;;;;;;;10.27;6.40;;;3.50;98.00;;;;;;5044618;28;20040;-72
2020/12/12 01:26:00;;;;;;;9.18;5.82;;;3.40;98.00;;;;;;5035149;28;20037;-72
2020/12/12 01:28:26;;;;;;;8.30;5.63;;;3.30;98.00;;;;;;5044125;28;20022;-72
2020/12/12 01:30:53;;;;;;;9.13;6.13;;;3.30;98.00;;;;;;5036657;28;20022;-72
2020/12/12 01:33:19;;;;;;;10.90;6.53;;;3.30;98.00;;;;;;5035033;28;20057;-72
2020/12/12 01:35:45;;;;;;;10.18;6.03;;;3.20;98.00;;;;;;5033066;28;20052;-72
2020/12/12 01:38:11;;;;;;;10.52;6.65;;;3.20;98.00;;;;;;5037506;28;20064;-72
2020/12/12 01:40:37;;;;;;;9.45;5.97;;;3.20;98.00;;;;;;5043974;28;20029;-72
2020/12/12 01:43:03;;;;;;;9.63;6.18;;;3.20;98.00;;;;;;5033517;28;20025;-72
2020/12/12 01:45:29;;;;;;;9.43;6.03;;;3.20;98.00;;;;;;5034477;28;20116;-72
2020/12/12 01:47:55;;;;;;;10.63;6.78;;;3.30;98.00;;;;;;5035479;28;20049;-72
2020/12/12 01:50:21;;;;;;;10.90;6.70;;;3.30;98.00;;;;;;5043459;28;20116;-71
2020/12/12 01:52:50;;;;;;;10.07;6.05;;;3.20;98.00;;;;;;5032468;28;20104;-71
2020/12/12 01:55:18;;;;;;;8.65;5.78;;;3.30;98.00;;;;;;5033784;28;20083;-71
2020/12/12 01:57:48;;;;;;;8.38;5.22;;;3.30;98.00;;;;;;5034341;28;20109;-72
2020/12/12 02:00:13;;;;;;;9.38;5.25;;;3.30;98.00;;;;;;5032774;28;20052;-72
2020/12/12 02:02:46;;;;;;;9.80;5.35;;;3.40;98.00;;;;;;5030876;28;20108;-72
2020/12/12 02:05:38;;;;;;;14.98;6.07;;;3.40;98.00;;;;;;5028816;28;20040;-72
2020/12/12 02:08:04;;;;;;;10.38;6.45;;;3.50;98.00;;;;;;5032585;28;20095;-72
2020/12/12 02:10:30;;;;;;;9.77;6.25;;;3.50;98.00;;;;;;5027443;28;20430;-72
2020/12/12 02:12:55;;;;;;;9.70;6.50;;;3.50;98.00;;;;;;5033736;28;20039;-72
2020/12/12 02:15:22;;;;;;;8.95;5.88;;;3.40;98.00;;;;;;5019963;28;20037;-71
2020/12/12 02:17:48;;;;;;;10.88;5.93;;;3.40;98.00;;;;;;5029861;28;20030;-71
2020/12/12 02:20:14;;;;;;;11.57;6.20;;;3.30;98.00;;;;;;5032996;28;20026;-71
2020/12/12 02:22:39;;;;;;;11.30;6.78;;;3.30;98.00;;;;;;5031762;28;20031;-71
2020/12/12 02:25:05;;;;;;;10.55;6.53;;;3.20;98.00;;;;;;5025065;28;20461;-72
2020/12/12 02:27:30;;;;;;;9.75;6.65;;;3.10;98.00;;;;;;5019190;28;20095;-71
2020/12/12 02:29:56;;;;;;;10.77;7.00;;;3.00;98.00;;;;;;5034407;28;20065;-71
2020/12/12 02:32:22;;;;;;;9.13;6.18;;;3.00;98.00;;;;;;5019095;28;20033;-72
2020/12/12 02:34:47;;;;;;;9.40;6.00;;;3.00;98.00;;;;;;5034042;28;20025;-72
2020/12/12 02:37:13;;;;;;;9.82;6.65;;;3.00;98.00;;;;;;5033123;28;20109;-72
2020/12/12 02:39:39;;;;;;;9.63;5.43;;;3.00;98.00;;;;;;5034257;28;20033;-72
2020/12/12 02:42:07;;;;;;;9.55;6.25;;;3.10;98.00;;;;;;5028134;28;20034;-72
2020/12/12 02:44:33;;;;;;;8.93;5.78;;;3.10;98.00;;;;;;5031379;28;20060;-71
2020/12/12 02:46:58;;;;;;;9.02;5.95;;;3.10;98.00;;;;;;5030598;28;20060;-71
2020/12/12 02:49:24;;;;;;;8.40;5.88;;;3.20;98.00;;;;;;5030545;28;20049;-71
2020/12/12 02:51:50;;;;;;;10.88;6.22;;;3.30;98.00;;;;;;5036239;28;20017;-72
2020/12/12 02:54:16;;;;;;;8.15;5.43;;;3.30;98.00;;;;;;5041515;28;20033;-71
2020/12/12 02:56:42;;;;;;;10.70;5.30;;;3.30;98.00;;;;;;5030230;28;20022;-71
2020/12/12 02:59:07;;;;;;;9.35;6.00;;;3.30;98.00;;;;;;5032820;28;20028;-72
2020/12/12 03:01:33;;;;;;;8.18;5.35;;;3.30;98.00;;;;;;5026627;28;20116;-72
2020/12/12 03:03:59;;;;;;;9.77;5.40;;;3.30;98.00;;;;;;5036195;28;20037;-72
2020/12/12 03:06:24;;;;;;;8.18;5.57;;;3.30;98.00;;;;;;5037049;28;20029;-72
2020/12/12 03:08:50;;;;;;;8.85;5.68;;;3.30;98.00;;;;;;5035189;28;20116;-71
2020/12/12 03:11:15;;;;;;;9.23;5.65;;;3.30;98.00;;;;;;5037680;28;20053;-72
2020/12/12 03:13:41;;;;;;;7.65;5.03;;;3.30;98.00;;;;;;5032275;28;20052;-71
2020/12/12 03:16:07;;;;;;;8.77;5.43;;;3.30;98.00;;;;;;5030152;28;20026;-71
2020/12/12 03:18:32;;;;;;;7.28;4.85;;;3.40;98.00;;;;;;5035189;28;20056;-71
2020/12/12 03:20:58;;;;;;;8.75;4.90;;;3.40;98.00;;;;;;5036209;28;20025;-72
2020/12/12 03:23:24;;;;;;;7.22;4.70;;;3.30;98.00;;;;;;5035102;28;20030;-72
2020/12/12 03:25:49;;;;;;;7.00;4.60;;;3.40;98.00;;;;;;5035115;28;20045;-72
2020/12/12 03:28:15;;;;;;;8.07;4.97;;;3.50;98.00;;;;;;5018694;28;20466;-71
2020/12/12 03:30:43;;;;;;;6.45;3.90;;;3.50;98.00;;;;;;5016528;28;20072;-71
2020/12/12 03:33:09;;;;;;;5.50;3.47;;;3.50;98.00;;;;;;5032913;28;20025;-72
2020/12/12 03:35:35;;;;;;;4.95;3.60;;;3.80;98.00;;;;;;5037435;28;20079;-71
2020/12/12 03:38:00;;;;;;;5.25;3.20;;;3.90;98.00;;;;;;5031197;28;20100;-71
2020/12/12 03:40:26;;;;;;;5.55;3.45;;;3.80;98.00;;;;;;5033003;28;20096;-71
2020/12/12 03:42:52;;;;;;;5.45;3.17;;;3.90;98.00;;;;;;5036948;28;20035;-72
2020/12/12 03:45:19;;;;;;;5.75;3.15;;;4.00;98.00;;;;;;5035820;28;20030;-70
2020/12/12 03:47:46;;;;;;;5.05;2.90;;;4.00;98.00;;;;;;5029663;28;20046;-72
2020/12/12 03:50:12;;;;;;;4.75;2.90;;;4.00;98.00;;;;;;5035380;28;20056;-71
2020/12/12 03:52:38;;;;;;;4.15;2.40;;;4.10;98.00;;;;;;5035350;28;20105;-71
2020/12/12 03:55:04;;;;;;;3.47;2.20;;;4.20;98.00;;;;;;5028836;28;20031;-71
2020/12/12 03:57:30;;;;;;;3.60;2.10;;;4.10;98.00;;;;;;5029179;28;20044;-71
2020/12/12 03:59:58;;;;;;;2.97;1.95;;;4.10;98.00;;;;;;5034282;28;20033;-71
2020/12/12 04:02:27;;;;;;;4.15;2.38;;;4.00;98.00;;;;;;5026832;28;20029;-72
2020/12/12 04:04:53;;;;;;;4.55;2.80;;;3.90;98.00;;;;;;5018989;28;20032;-72
2020/12/12 04:07:18;;;;;;;3.80;2.28;;;3.80;98.00;;;;;;5030663;28;20397;-71
2020/12/12 04:09:44;;;;;;;4.35;2.72;;;3.70;98.00;;;;;;5020884;28;20113;-71
2020/12/12 04:12:09;;;;;;;4.25;2.35;;;3.60;98.00;;;;;;5035517;28;20021;-71
2020/12/12 04:14:35;;;;;;;3.83;2.28;;;3.50;98.00;;;;;;5034787;28;20414;-72
2020/12/12 04:17:01;;;;;;;3.92;2.55;;;3.40;98.00;;;;;;5031186;28;20034;-73
2020/12/12 04:19:26;;;;;;;4.10;2.33;;;3.40;98.00;;;;;;5034966;28;20130;-73
2020/12/12 04:21:52;;;;;;;4.90;2.53;;;3.30;98.00;;;;;;5036138;28;20440;-73
2020/12/12 04:24:18;;;;;;;4.85;2.78;;;3.30;98.00;;;;;;5028441;28;20026;-73
2020/12/12 04:26:43;;;;;;;52.60;27.48;;;3.30;98.00;;;;;;5035534;28;20299;-73
2020/12/12 04:29:09;;;;;;;6.95;3.67;;;3.30;98.00;;;;;;5036144;28;20037;-72
2020/12/12 04:31:34;;;;;;;4.35;2.40;;;3.20;98.00;;;;;;5032916;28;20040;-73
2020/12/12 04:34:03;;;;;;;4.20;2.58;;;3.10;98.00;;;;;;5021587;28;20037;-73
2020/12/12 04:36:32;;;;;;;4.10;2.40;;;3.10;98.00;;;;;;5032247;28;20418;-72
2020/12/12 04:38:59;;;;;;;5.13;2.20;;;3.20;98.00;;;;;;5016618;28;20030;-72
2020/12/12 04:41:26;;;;;;;3.17;1.83;;;3.20;98.00;;;;;;5027298;28;20052;-73
2020/12/12 04:43:52;;;;;;;3.92;2.45;;;3.10;98.00;;;;;;5035881;28;20025;-73
2020/12/12 04:46:18;;;;;;;3.88;2.28;;;3.10;98.00;;;;;;5026582;28;20075;-73
2020/12/12 04:48:44;;;;;;;4.10;2.20;;;3.10;98.00;;;;;;5035494;28;20037;-73
2020/12/12 04:51:10;;;;;;;3.30;1.85;;;3.00;98.00;;;;;;5033800;28;20369;-73
2020/12/12 04:53:35;;;;;;;4.28;2.35;;;3.10;98.00;;;;;;5035759;28;20079;-73
2020/12/12 04:56:04;;;;;;;3.45;2.10;;;3.00;98.00;;;;;;5034140;28;20033;-73
2020/12/12 04:58:30;;;;;;;3.60;1.92;;;3.00;98.00;;;;;;5035771;28;20083;-73
2020/12/12 05:00:59;;;;;;;3.63;2.13;;;3.00;98.00;;;;;;5025471;28;20029;-73
2020/12/12 05:03:26;;;;;;;4.03;2.00;;;3.00;98.00;;;;;;5020924;28;20100;-73
2020/12/12 05:05:52;;;;;;;2.92;1.80;;;3.00;98.00;;;;;;5027734;28;20079;-74
2020/12/12 05:08:18;;;;;;;3.40;1.90;;;3.00;98.00;;;;;;5034136;28;20091;-73
2020/12/12 05:10:50;;;;;;;3.85;2.20;;;3.00;98.00;;;;;;5026656;28;20029;-73
2020/12/12 05:13:22;;;;;;;3.80;2.13;;;3.00;98.00;;;;;;5034308;28;20079;-73
2020/12/12 05:15:50;;;;;;;3.33;1.88;;;3.00;98.00;;;;;;5028579;28;20025;-73
2020/12/12 05:18:17;;;;;;;3.10;1.73;;;3.20;98.00;;;;;;5025924;28;20026;-73
2020/12/12 05:20:43;;;;;;;3.80;2.00;;;3.20;98.00;;;;;;5026411;28;20025;-73
2020/12/12 05:23:16;;;;;;;4.07;2.25;;;3.20;98.00;;;;;;5028125;28;20096;-73
2020/12/12 05:25:44;;;;;;;4.07;1.67;;;3.20;98.00;;;;;;5031510;28;20037;-73
2020/12/12 05:28:11;;;;;;;4.45;2.38;;;3.20;98.00;;;;;;5026550;28;20033;-73
2020/12/12 05:30:44;;;;;;;3.13;1.90;;;3.10;98.00;;;;;;5019037;28;20029;-73
2020/12/12 05:33:13;;;;;;;3.55;1.80;;;3.10;98.00;;;;;;5056176;28;20025;-74
2020/12/12 05:35:39;;;;;;;4.03;2.30;;;3.20;98.00;;;;;;5025581;28;20035;-74
2020/12/12 05:38:07;;;;;;;4.15;2.30;;;3.20;98.00;;;;;;5021434;28;20623;-73
2020/12/12 05:40:35;;;;;;;4.80;2.42;;;3.10;98.00;;;;;;5022281;28;20038;-73
2020/12/12 05:43:05;;;;;;;3.75;2.10;;;3.10;98.00;;;;;;5025883;28;20037;-73
2020/12/12 05:45:32;;;;;;;3.40;2.00;;;3.20;98.00;;;;;;5025547;28;20033;-73
2020/12/12 05:47:57;;;;;;;3.33;1.88;;;3.20;98.00;;;;;;5022870;28;20485;-73
2020/12/12 05:50:26;;;;;;;3.13;2.00;;;3.20;98.00;;;;;;5021522;28;20041;-73
2020/12/12 05:52:54;;;;;;;3.15;1.95;;;3.20;98.00;;;;;;5019575;28;20047;-73
2020/12/12 05:55:26;;;;;;;2.97;1.80;;;3.20;98.00;;;;;;5021747;28;20036;-73
2020/12/12 05:57:55;;;;;;;3.53;1.80;;;3.20;98.00;;;;;;5021993;28;20296;-73
2020/12/12 06:00:28;;;;;;;2.88;1.88;;;3.40;98.00;;;;;;5023384;28;20414;-73
2020/12/12 06:02:58;;;;;;;3.13;1.92;;;3.40;98.00;;;;;;5021764;28;20037;-73
2020/12/12 06:05:28;;;;;;;3.50;2.00;;;3.30;98.00;;;;;;5024952;28;20039;-73
2020/12/12 06:08:00;;;;;;;3.42;1.80;;;3.30;98.00;;;;;;5020424;28;20077;-73
2020/12/12 06:10:32;;;;;;;3.40;1.85;;;3.30;98.00;;;;;;5020308;28;20083;-74
2020/12/12 06:13:03;;;;;;;3.55;2.05;;;3.20;98.00;;;;;;5017657;28;20323;-73
2020/12/12 06:15:38;;;;;;;3.38;1.80;;;3.10;98.00;;;;;;5025563;28;20018;-73
2020/12/12 06:18:04;;;;;;;3.45;1.92;;;3.10;98.00;;;;;;5018817;28;20409;-73
2020/12/12 06:20:34;;;;;;;2.67;1.70;;;3.20;98.00;;;;;;5018300;28;20064;-72
2020/12/12 06:23:01;;;;;;;4.00;2.15;;;3.10;98.00;;;;;;5029716;28;20030;-73
2020/12/12 06:25:27;;;;;;;6.30;4.65;;;3.10;98.00;;;;;;5026554;28;20415;-73
2020/12/12 06:27:55;;;;;;;6.53;2.92;;;3.10;98.00;;;;;;5030765;28;20038;-73
2020/12/12 06:30:26;;;;;;;3.50;2.00;;;3.10;98.00;;;;;;5028362;28;20505;-73
2020/12/12 06:33:02;;;;;;;2.88;1.67;;;3.10;98.00;;;;;;5021822;28;20030;-73
2020/12/12 06:35:35;;;;;;;3.50;2.00;;;3.10;98.00;;;;;;5026411;28;20022;-73
2020/12/12 06:38:28;;;;;;;3.25;1.80;;;3.10;98.00;;;;;;5032963;28;20370;-73
2020/12/12 06:40:58;;;;;;;7.82;4.57;;;3.10;98.00;;;;;;5025727;28;20034;-73
2020/12/12 06:43:31;;;;;;;4.65;2.78;;;3.20;98.00;;;;;;5027441;28;20029;-73
2020/12/12 06:46:04;;;;;;;5.35;2.90;;;3.20;98.00;;;;;;5026665;28;20133;-73
2020/12/12 06:48:32;;;;;;;4.90;3.10;;;3.20;98.00;;;;;;5022502;28;20377;-73
2020/12/12 06:50:59;;;;;;;6.50;3.28;;;3.10;98.00;;;;;;5024890;28;20041;-73
2020/12/12 06:53:31;;;;;;;8.32;4.82;;;3.10;98.00;;;;;;5021975;28;20076;-72
2020/12/12 06:56:14;;;;;;;7.88;4.25;;;3.00;98.00;;;;;;5023627;28;20403;-73
2020/12/12 06:58:44;;;;;;;8.20;5.15;;;2.90;98.00;;;;;;5024491;28;20021;-73
2020/12/12 07:01:32;;;;;;;5.53;3.20;;;2.90;98.00;;;;;;5022271;28;20449;-73
2020/12/12 07:04:07;;;;;;;4.45;2.40;;;2.90;98.00;;;;;;5028095;28;20025;-72
2020/12/12 07:06:37;;;;;;;6.32;3.42;;;2.90;98.00;;;;;;5019749;28;20071;-72
2020/12/12 07:09:06;;;;;;;3.78;2.35;;;2.90;98.00;;;;;;5024957;28;20112;-72
2020/12/12 07:11:32;;;;;;;5.75;3.30;;;3.00;98.00;;;;;;5023613;28;20026;-72
2020/12/12 07:13:58;;;;;;;5.10;3.40;;;3.10;98.00;;;;;;5027536;28;20433;-73
2020/12/12 07:16:24;;;;;;;4.50;2.88;;;3.10;98.00;;;;;;5021312;28;20033;-73
2020/12/12 07:18:54;;;;;;;10.77;6.28;;;3.10;98.00;;;;;;5027939;28;20236;-73
2020/12/12 07:21:20;;;;;;;5.47;3.47;;;3.10;98.00;;;;;;5022152;28;20036;-73
2020/12/12 07:23:46;;;;;;;9.75;5.75;;;3.10;98.00;;;;;;5021636;28;20026;-74
2020/12/12 07:26:15;;;;;;;26.92;13.65;;;3.20;98.00;;;;;;5023852;28;20492;-73
2020/12/12 07:28:41;;;;;;;15.95;8.20;;;3.20;98.00;;;;;;5024328;28;20026;-73
2020/12/12 07:31:07;;;;;;;5.93;3.83;;;3.30;98.00;;;;;;5022354;28;20161;-74
2020/12/12 07:33:33;;;;;;;16.90;10.32;;;3.30;98.00;;;;;;5020412;28;20129;-74
2020/12/12 07:35:59;;;;;;;10.15;5.63;;;3.30;98.00;;;;;;5019374;28;20030;-73
2020/12/12 07:38:25;;;;;;;10.30;7.35;;;3.30;98.00;;;;;;5024208;28;20101;-73
2020/12/12 07:40:51;;;;;;;6.93;4.88;;;3.40;98.00;;;;;;5025725;28;20113;-73
2020/12/12 07:43:17;;;;;;;5.63;3.47;;;3.40;98.00;;;;;;5021823;28;20071;-73
2020/12/12 07:48:18;;;;;;;5.63;4.20;;;3.40;98.00;;;;;;5036063;28;20048;-73
2020/12/12 07:50:43;;;;;;;5.00;2.90;;;3.50;98.00;;;;;;5036902;28;20037;-73
2020/12/12 07:53:14;;;;;;;4.82;2.67;;;3.50;98.00;;;;;;5036884;28;20017;-73
2020/12/12 07:55:45;;;;;;;4.28;2.38;;;3.50;98.00;;;;;;5036259;28;20032;-73
2020/12/12 07:58:15;;;;;;;4.47;2.78;;;3.50;98.00;;;;;;5036717;28;20099;-73
2020/12/12 08:00:41;;;;;;;5.25;3.38;;;3.60;98.00;;;;;;5034560;28;20537;-73
2020/12/12 08:03:06;;;;;;;5.25;3.47;;;3.60;98.00;;;;;;5036100;28;20037;-73
2020/12/12 08:05:32;;;;;;;3.42;2.08;;;3.70;98.00;;;;;;5036724;28;20112;-73
2020/12/12 08:07:58;;;;;;;3.50;2.00;;;3.70;98.00;;;;;;5035583;28;20024;-73
2020/12/12 08:10:24;;;;;;;4.10;2.45;;;3.70;98.00;;;;;;5036173;28;20448;-73
2020/12/12 08:12:49;;;;;;;2.70;1.58;;;3.70;98.00;;;;;;5036154;28;20029;-73
2020/12/12 08:15:22;;;;;;;2.65;1.60;;;3.90;98.00;;;;;;5036123;28;20063;-73
2020/12/12 08:17:50;;;;;;;2.17;1.40;;;3.90;98.00;;;;;;5035147;28;20029;-73
2020/12/12 08:20:23;;;;;;;2.30;1.42;;;3.90;98.00;;;;;;5036013;28;20395;-73
2020/12/12 08:22:50;;;;;;;3.10;1.50;;;3.90;98.00;;;;;;5036137;28;20053;-73
2020/12/12 08:25:18;;;;;;;3.47;1.83;;;3.80;98.00;;;;;;5036109;28;20053;-74
2020/12/12 08:27:44;;;;;;;2.67;1.52;;;3.80;98.00;;;;;;5035335;28;20388;-73
2020/12/12 08:30:10;;;;;;;2.15;1.20;;;3.80;98.00;;;;;;5033688;28;20041;-73
2020/12/12 08:32:41;;;;;;;3.03;1.45;;;3.90;98.00;;;;;;5029787;28;20083;-73
2020/12/12 08:35:17;;;;;;;2.58;1.70;;;4.00;98.00;;;;;;5031400;28;20488;-73
2020/12/12 08:37:55;;;;;;;2.80;1.75;;;4.00;98.00;;;;;;5030883;28;20405;-73
2020/12/12 08:40:22;;;;;;;2.70;1.58;;;4.10;98.00;;;;;;5029015;28;20091;-73
2020/12/12 08:43:05;;;;;;;1.70;1.30;;;4.20;98.00;;;;;;5026717;28;20022;-73
2020/12/12 08:45:36;;;;;;;2.40;1.25;;;4.30;98.00;;;;;;5031787;28;20057;-73
2020/12/12 08:48:15;;;;;;;1.45;1.00;;;4.40;98.00;;;;;;5035870;28;20104;-73
2020/12/12 08:50:48;;;;;;;2.05;1.10;;;4.50;98.00;;;;;;5035481;28;20685;-73
2020/12/12 08:53:32;;;;;;;1.73;1.05;;;4.70;98.00;;;;;;5030039;28;20014;-73
2020/12/12 08:56:03;;;;;;;2.45;1.33;;;4.70;98.00;;;;;;5029913;28;20460;-72
2020/12/12 08:58:57;;;;;;;1.67;1.10;;;4.80;98.00;;;;;;5030433;28;20025;-73
2020/12/12 09:01:31;;;;;;;2.00;1.20;;;4.90;98.00;;;;;;5021302;28;20037;-73
2020/12/12 09:04:09;;;;;;;1.55;1.02;;;4.90;98.00;;;;;;5030234;28;20026;-73
2020/12/12 09:06:57;;;;;;;0.88;0.80;;;5.10;98.00;;;;;;5032019;28;20052;-72
2020/12/12 09:09:26;;;;;;;2.80;1.48;;;5.20;98.00;;;;;;5028106;28;20354;-73
2020/12/12 09:12:02;;;;;;;3.05;1.63;;;5.30;98.00;;;;;;5034864;28;20033;-73
2020/12/12 09:14:34;;;;;;;32.72;14.90;;;5.40;98.00;;;;;;5034881;28;20022;-73
2020/12/12 09:17:02;;;;;;;2.67;1.30;;;5.60;98.00;;;;;;5039878;28;20029;-73
2020/12/12 09:19:28;;;;;;;2.50;1.30;;;5.60;97.90;;;;;;5042785;28;20030;-73
2020/12/12 09:21:54;;;;;;;7.10;3.85;;;5.60;97.60;;;;;;5034924;28;20076;-74
2020/12/12 09:24:24;;;;;;;7.10;4.38;;;5.60;98.00;;;;;;5034827;28;20041;-74
2020/12/12 09:26:53;;;;;;;2.63;1.40;;;5.60;98.00;;;;;;5030267;28;20044;-74
2020/12/12 09:29:19;;;;;;;5.20;2.40;;;5.60;98.00;;;;;;5044250;28;20025;-74
2020/12/12 09:31:46;;;;;;;3.28;1.65;;;5.40;97.70;;;;;;5033328;28;20040;-74
2020/12/12 09:34:11;;;;;;;5.95;3.20;;;5.40;98.00;;;;;;5033471;28;20025;-74
2020/12/12 09:36:37;;;;;;;5.53;3.05;;;5.60;98.00;;;;;;5032328;28;20032;-74
2020/12/12 09:39:04;;;;;;;4.70;2.53;;;5.70;98.00;;;;;;5036384;28;20049;-74
2020/12/12 09:41:32;;;;;;;4.85;2.53;;;5.80;98.00;;;;;;5034468;28;20496;-74
2020/12/12 09:43:58;;;;;;;5.95;3.08;;;5.60;97.90;;;;;;5035268;28;20112;-74
2020/12/12 09:46:24;;;;;;;2.53;1.52;;;5.70;98.00;;;;;;5030705;28;20528;-74
2020/12/12 09:48:50;;;;;;;3.97;2.28;;;5.80;98.00;;;;;;5029566;28;20086;-74
2020/12/12 09:51:16;;;;;;;3.70;2.28;;;5.90;98.00;;;;;;5032691;28;20327;-74
2020/12/12 09:53:43;;;;;;;4.95;2.70;;;5.90;98.00;;;;;;5034742;28;20072;-74
2020/12/12 09:56:12;;;;;;;3.67;2.05;;;5.80;98.00;;;;;;5032786;28;20112;-74
2020/12/12 09:58:38;;;;;;;4.68;2.50;;;5.70;98.00;;;;;;5032554;28;20310;-74
2020/12/12 10:01:05;;;;;;;4.10;2.50;;;5.50;98.00;;;;;;5032678;28;20032;-74
2020/12/12 10:03:32;;;;;;;5.05;2.97;;;5.30;98.00;;;;;;5030898;28;20095;-74
2020/12/12 10:05:58;;;;;;;4.95;2.80;;;5.40;98.00;;;;;;5029092;28;20033;-74
2020/12/12 10:08:30;;;;;;;5.75;3.00;;;5.30;98.00;;;;;;5031381;28;20033;-74
2020/12/12 10:10:58;;;;;;;;;;;5.40;98.00;;;;;;5033648;28;20029;-74
2020/12/12 10:13:28;;;;;;;4.55;2.28;;;5.40;98.00;;;;;;5034489;28;19913;-74
2020/12/12 10:15:57;;;;;;;4.65;2.55;;;5.30;98.00;;;;;;5033540;28;20033;-73
2020/12/12 10:18:23;;;;;;;4.30;2.38;;;5.20;98.00;;;;;;5033720;28;20021;-75
2020/12/12 10:20:49;;;;;;;7.90;4.45;;;4.90;98.00;;;;;;5033726;28;20029;-74
2020/12/12 10:23:15;;;;;;;6.28;3.60;;;5.10;98.00;;;;;;5034183;28;20037;-74
2020/12/12 10:25:40;;;;;;;4.53;2.42;;;5.20;98.00;;;;;;5032844;28;20076;-74
2020/12/12 10:28:06;;;;;;;6.28;2.58;;;5.20;98.00;;;;;;5033486;28;20032;-74
2020/12/12 10:30:32;;;;;;;5.93;3.63;;;5.10;98.00;;;;;;5034171;28;20449;-74
2020/12/12 10:33:01;;;;;;;5.75;3.65;;;5.20;98.00;;;;;;5033980;28;20068;-75
2020/12/12 10:35:28;;;;;;;6.03;3.70;;;5.20;98.00;;;;;;5033610;28;20018;-74
2020/12/12 10:37:55;;;;;;;8.18;5.13;;;4.90;98.00;;;;;;5034687;28;20303;-74
2020/12/12 10:40:46;;;;;;;9.05;5.03;;;5.00;98.00;;;;;;5034084;28;20117;-74
2020/12/12 10:43:13;;;;;;;3.40;1.77;;;5.10;98.00;;;;;;5027543;28;20295;-74
2020/12/12 10:45:41;;;;;;;12.05;6.18;;;5.30;98.00;;;;;;5031986;28;20031;-74
2020/12/12 10:48:07;;;;;;;6.97;4.47;;;5.30;98.00;;;;;;5034034;28;20045;-74
2020/12/12 10:50:32;;;;;;;7.10;4.45;;;5.30;98.00;;;;;;5032988;28;20037;-75
2020/12/12 10:52:58;;;;;;;5.78;3.70;;;5.40;98.00;;;;;;5032292;28;20025;-74
2020/12/12 10:55:25;;;;;;;6.20;4.03;;;5.50;98.00;;;;;;5031105;28;20480;-75
2020/12/12 10:57:50;;;;;;;5.93;3.67;;;5.40;98.00;;;;;;5033139;28;20025;-75
2020/12/12 11:00:24;;;;;;;5.80;3.50;;;5.50;98.00;;;;;;5033192;28;20449;-75
2020/12/12 11:02:51;;;;;;;5.88;4.03;;;5.60;98.00;;;;;;5032995;28;20086;-75
2020/12/12 11:05:17;;;;;;;6.55;3.58;;;5.30;98.00;;;;;;5033336;28;20121;-75
2020/12/12 11:07:43;;;;;;;5.65;3.15;;;5.20;98.00;;;;;;5029797;28;20112;-75
2020/12/12 11:10:08;;;;;;;6.60;4.07;;;5.10;98.00;;;;;;5034260;28;20037;-75
2020/12/12 11:12:34;;;;;;;4.55;2.40;;;5.10;98.00;;;;;;5035031;28;20029;-75
2020/12/12 11:14:59;;;;;;;7.20;4.45;;;5.10;98.00;;;;;;5035006;28;20032;-75
2020/12/12 11:17:25;;;;;;;12.10;7.25;;;5.20;98.00;;;;;;5032669;28;20030;-74
2020/12/12 11:19:51;;;;;;;10.82;8.77;;;5.10;98.00;;;;;;5040574;28;20107;-75
2020/12/12 11:22:16;;;;;;;9.82;7.13;;;5.10;98.00;;;;;;5034600;28;20034;-75
2020/12/12 11:24:42;;;;;;;10.18;4.70;;;5.10;98.00;;;;;;5035321;28;20033;-75
2020/12/12 11:27:08;;;;;;;7.40;4.30;;;5.10;98.00;;;;;;5034934;28;20418;-74
2020/12/12 11:29:33;;;;;;;8.52;4.93;;;5.30;98.00;;;;;;5035106;28;20068;-74
2020/12/12 11:32:00;;;;;;;8.48;5.07;;;5.30;98.00;;;;;;5033241;28;20025;-75
2020/12/12 11:34:39;;;;;;;14.32;8.75;;;5.30;98.00;;;;;;5033014;28;20029;-74
2020/12/12 11:37:31;;;;;;;18.85;12.60;;;5.20;98.00;;;;;;5018976;28;20381;-74
2020/12/12 11:40:17;;;;;;;17.33;12.30;;;5.10;98.00;;;;;;5032818;28;20433;-74
2020/12/12 11:48:06;;;;;;;8.80;6.20;;;4.90;98.00;;;;;;5034057;28;20048;-74
2020/12/12 11:50:33;;;;;;;10.45;6.00;;;4.90;98.00;;;;;;5034376;28;20034;-74
2020/12/12 11:52:58;;;;;;;8.20;5.35;;;4.90;98.00;;;;;;5034605;28;20021;-74
2020/12/12 11:55:25;;;;;;;10.45;6.45;;;5.00;98.00;;;;;;5034454;28;20028;-74
2020/12/12 11:57:51;;;;;;;11.98;7.50;;;5.10;98.00;;;;;;5034603;28;20045;-74
2020/12/12 12:00:17;;;;;;;14.30;7.20;;;5.10;98.00;;;;;;5034458;28;20040;-74
2020/12/12 12:02:42;;;;;;;11.02;5.85;;;4.90;98.00;;;;;;5032014;28;20021;-74
2020/12/12 12:05:08;;;;;;;7.43;5.00;;;4.90;98.00;;;;;;5034098;28;20060;-74
2020/12/12 12:07:41;;;;;;;8.27;5.35;;;4.90;98.00;;;;;;5033432;28;20033;-74
2020/12/12 12:10:13;;;;;;;8.07;4.78;;;5.00;98.00;;;;;;5034127;28;20445;-74
2020/12/12 12:12:39;;;;;;;11.32;5.18;;;4.80;98.00;;;;;;5033207;28;20028;-74
2020/12/12 12:15:05;;;;;;;9.68;5.68;;;4.80;98.00;;;;;;5033180;28;20334;-74
2020/12/12 12:17:30;;;;;;;10.63;6.93;;;4.70;98.00;;;;;;5032914;28;20021;-74
2020/12/12 12:19:56;;;;;;;20.45;11.27;;;4.80;98.00;;;;;;5033726;28;20030;-74
2020/12/12 12:22:22;;;;;;;11.15;7.50;;;4.90;98.00;;;;;;5032513;28;20061;-74
2020/12/12 12:24:48;;;;;;;7.63;5.70;;;5.00;98.00;;;;;;5033150;28;20326;-74
2020/12/12 12:27:13;;;;;;;13.68;9.25;;;5.00;98.00;;;;;;5038805;28;20034;-74
2020/12/12 12:29:39;;;;;;;8.35;5.13;;;5.10;98.00;;;;;;5034461;28;20378;-74
2020/12/12 12:32:07;;;;;;;11.18;4.97;;;5.20;98.00;;;;;;5031366;28;20033;-74
2020/12/12 12:34:33;;;;;;;17.65;9.85;;;5.30;98.00;;;;;;5033663;28;20104;-74
2020/12/12 12:36:59;;;;;;;13.00;6.93;;;5.40;98.00;;;;;;5033862;28;20140;-74
2020/12/12 12:39:24;;;;;;;11.93;7.47;;;5.40;98.00;;;;;;5033056;28;20079;-74
2020/12/12 12:41:50;;;;;;;4.13;1.88;;;5.40;98.00;;;;;;5033511;28;20334;-74
2020/12/12 12:44:19;;;;;;;7.10;3.72;;;5.40;98.00;;;;;;5032416;28;20037;-74
2020/12/12 12:46:49;;;;;;;8.07;5.60;;;5.50;98.00;;;;;;5031974;28;20029;-74
2020/12/12 12:49:14;;;;;;;7.68;4.32;;;5.60;98.00;;;;;;5032227;28;20049;-74
2020/12/12 12:51:40;;;;;;;11.43;5.53;;;5.70;98.00;;;;;;5031047;28;20038;-74
2020/12/12 12:54:06;;;;;;;10.32;6.82;;;5.80;98.00;;;;;;5031800;28;20033;-74
2020/12/12 12:56:31;;;;;;;14.52;8.90;;;5.80;98.00;;;;;;5029775;28;20021;-74
2020/12/12 12:58:57;;;;;;;9.98;7.60;;;5.80;98.00;;;;;;5032827;28;20060;-74
2020/12/12 13:01:24;;;;;;;10.55;7.25;;;5.90;98.00;;;;;;5033975;28;20137;-73
2020/12/12 13:03:54;;;;;;;10.27;7.20;;;6.00;98.00;;;;;;5033578;28;20060;-74
2020/12/12 13:06:21;;;;;;;7.53;5.07;;;6.30;98.00;;;;;;5033162;28;20029;-73